Time;durP1;ratioP1;P1;durP2;ratioP2;P2;SDS_P1;SDS_P2;PMS_P1;PMS_P2;Temp;Humidity;BMP_temperature;BMP_pressure;BME280_temperature;BME280_humidity;BME280_pressure;Samples;Min_cycle;Max_cycle;Signal;HPM_P1;HPM_P2
2021/10/19 00:01:51;;;;;;;13.07;8.45;;;;;;;8.21;84.04;101405.09;5006527;28;20040;-78
2021/10/19 00:04:16;;;;;;;11.55;9.05;;;;;;;8.23;84.46;101407.75;5004918;28;20046;-78
2021/10/19 00:06:41;;;;;;;12.68;8.82;;;;;;;8.28;83.79;101408.72;4992152;28;20045;-78
2021/10/19 00:09:07;;;;;;;13.35;8.48;;;;;;;8.26;84.06;101406.06;5006297;28;20442;-78
2021/10/19 00:11:32;;;;;;;12.05;8.40;;;;;;;8.30;84.39;101409.59;5009433;28;20515;-78
2021/10/19 00:13:57;;;;;;;12.73;8.77;;;;;;;8.32;83.89;101398.25;5006498;28;20497;-78
2021/10/19 00:16:24;;;;;;;10.63;8.18;;;;;;;8.40;83.81;101393.16;5006865;28;20038;-78
2021/10/19 00:18:49;;;;;;;13.10;9.18;;;;;;;8.45;83.33;101388.84;5006813;28;20033;-78
2021/10/19 00:21:14;;;;;;;11.32;8.50;;;;;;;8.43;83.63;101406.34;5021917;28;20097;-78
2021/10/19 00:23:40;;;;;;;11.43;7.80;;;;;;;8.45;83.76;101411.66;5006900;28;20029;-78
2021/10/19 00:26:05;;;;;;;12.40;8.93;;;;;;;8.43;83.53;101406.34;5004867;28;20073;-78
2021/10/19 00:28:31;;;;;;;11.63;8.32;;;;;;;8.34;83.19;101412.31;5011333;28;20041;-78
2021/10/19 00:30:56;;;;;;;11.77;7.75;;;;;;;8.26;84.01;101407.81;5004813;28;20122;-77
2021/10/19 00:33:21;;;;;;;13.93;9.57;;;;;;;8.23;84.09;101402.50;5008395;28;20088;-77
2021/10/19 00:35:47;;;;;;;9.88;7.25;;;;;;;8.23;83.90;101397.22;5005532;28;20044;-78
2021/10/19 00:38:12;;;;;;;11.98;8.18;;;;;;;8.17;83.82;101395.34;5009344;28;20041;-78
2021/10/19 00:40:37;;;;;;;13.18;9.13;;;;;;;8.21;83.83;101394.56;5006373;28;20038;-78
2021/10/19 00:43:06;;;;;;;11.65;8.25;;;;;;;8.21;84.01;101402.44;5010945;28;20049;-78
2021/10/19 00:45:32;;;;;;;10.93;8.20;;;;;;;8.18;83.88;101397.16;5006024;28;20117;-78
2021/10/19 00:47:58;;;;;;;12.60;8.05;;;;;;;8.14;83.66;101408.44;5023173;28;20048;-78
2021/10/19 00:50:24;;;;;;;11.95;8.38;;;;;;;8.15;83.64;101399.72;5007405;28;20046;-78
2021/10/19 00:52:50;;;;;;;12.43;8.10;;;;;;;8.18;84.23;101394.53;5022429;28;20512;-77
2021/10/19 00:55:17;;;;;;;11.25;8.13;;;;;;;8.19;83.99;101388.38;5010137;28;20042;-78
2021/10/19 00:57:43;;;;;;;12.48;9.07;;;;;;;8.20;83.69;101397.16;5005186;28;20037;-78
2021/10/19 01:00:09;;;;;;;9.70;7.25;;;;;;;8.17;84.03;101386.59;5008163;28;20038;-77
2021/10/19 01:02:35;;;;;;;10.05;7.45;;;;;;;8.12;83.94;101373.34;5029779;28;20034;-78
2021/10/19 01:05:04;;;;;;;12.23;8.30;;;;;;;8.17;83.80;101369.06;5023070;28;20034;-78
2021/10/19 01:07:30;;;;;;;12.10;8.20;;;;;;;8.21;83.76;101359.50;5011463;28;20057;-77
2021/10/19 01:09:55;;;;;;;11.32;8.25;;;;;;;8.25;83.13;101341.19;5005507;28;20042;-77
2021/10/19 01:12:21;;;;;;;10.75;8.05;;;;;;;8.26;83.72;101335.03;5002594;28;20096;-78
2021/10/19 01:14:46;;;;;;;16.08;8.70;;;;;;;8.29;83.14;101345.59;5007374;28;20084;-78
2021/10/19 01:17:11;;;;;;;12.18;8.95;;;;;;;8.22;83.07;101348.97;5019800;28;20046;-77
2021/10/19 01:19:37;;;;;;;11.65;8.32;;;;;;;8.15;83.63;101351.47;5007653;28;20060;-78
2021/10/19 01:22:05;;;;;;;9.88;7.15;;;;;;;8.15;83.93;101325.19;5005760;28;20034;-78
2021/10/19 01:24:31;;;;;;;12.82;8.50;;;;;;;8.13;83.60;101318.19;5005676;28;20042;-77
2021/10/19 01:26:57;;;;;;;13.98;8.55;;;;;;;8.21;84.12;101331.44;5002276;28;20029;-77
2021/10/19 01:29:22;;;;;;;12.45;8.57;;;;;;;8.23;83.53;101337.63;5003244;28;20046;-77
2021/10/19 01:31:51;;;;;;;10.93;7.70;;;;;;;8.25;83.57;101330.66;5002579;28;20495;-77
2021/10/19 01:34:17;;;;;;;9.98;7.82;;;;;;;8.30;83.49;101322.81;5002539;28;20514;-77
2021/10/19 01:36:42;;;;;;;12.40;9.35;;;;;;;8.30;83.05;101321.06;5002581;28;20037;-77
2021/10/19 01:39:09;;;;;;;12.48;8.10;;;;;;;8.34;83.64;101322.00;5002104;28;20037;-77
2021/10/19 01:41:34;;;;;;;10.88;8.32;;;;;;;8.40;82.66;101321.25;5003472;28;20505;-77
2021/10/19 01:43:59;;;;;;;13.13;8.18;;;;;;;8.38;82.71;101321.19;5003068;28;20041;-77
2021/10/19 01:46:25;;;;;;;11.15;7.47;;;;;;;8.29;82.62;101327.19;5000923;28;20093;-78
2021/10/19 01:48:50;;;;;;;12.68;8.35;;;;;;;8.29;82.78;101329.81;5004203;28;20030;-77
2021/10/19 01:51:15;;;;;;;10.05;7.60;;;;;;;8.33;82.76;101328.13;5015882;28;20390;-77
2021/10/19 01:53:42;;;;;;;11.05;7.72;;;;;;;8.31;83.33;101322.84;4998979;28;20034;-77
2021/10/19 01:56:10;;;;;;;10.13;7.70;;;;;;;8.31;83.33;101321.97;5003646;28;20084;-77
2021/10/19 01:58:35;;;;;;;9.75;7.15;;;;;;;8.28;83.87;101317.56;5016369;28;20627;-77
2021/10/19 02:01:00;;;;;;;8.85;7.22;;;;;;;8.30;82.93;101315.81;5003445;28;20100;-78
2021/10/19 02:03:26;;;;;;;11.55;7.80;;;;;;;8.31;83.93;101311.47;5016670;28;20064;-77
2021/10/19 02:05:51;;;;;;;10.80;8.13;;;;;;;8.36;83.23;101304.53;5002454;28;20420;-76
2021/10/19 02:08:17;;;;;;;12.13;9.00;;;;;;;8.40;83.69;101306.34;5002563;28;20032;-76
2021/10/19 02:10:42;;;;;;;12.95;9.25;;;;;;;8.44;82.98;101307.31;5001677;28;20385;-77
2021/10/19 02:13:08;;;;;;;12.05;8.07;;;;;;;8.45;82.92;101314.31;5002815;28;20091;-77
2021/10/19 02:15:34;;;;;;;14.18;10.07;;;;;;;8.41;83.38;101318.66;5001447;28;20147;-77
2021/10/19 02:18:00;;;;;;;10.82;7.03;;;;;;;8.45;83.00;101311.69;5005271;28;20050;-78
2021/10/19 02:20:27;;;;;;;10.98;7.90;;;;;;;8.32;83.78;101314.09;5003627;28;20038;-77
2021/10/19 02:22:52;;;;;;;10.70;7.63;;;;;;;8.35;83.33;101322.03;5005848;28;20464;-77
2021/10/19 02:25:18;;;;;;;11.30;7.93;;;;;;;8.39;83.51;101327.34;4998462;28;20049;-77
2021/10/19 02:27:44;;;;;;;11.35;7.88;;;;;;;8.40;83.27;101318.63;5003165;28;20518;-76
2021/10/19 02:30:10;;;;;;;12.90;8.98;;;;;;;8.38;83.65;101309.78;5000439;28;20038;-77
2021/10/19 02:32:37;;;;;;;10.35;7.93;;;;;;;8.38;83.48;101304.53;5002538;28;20046;-77
2021/10/19 02:35:03;;;;;;;9.02;6.90;;;;;;;8.44;83.66;101297.66;5016188;28;20042;-77
2021/10/19 02:37:29;;;;;;;10.95;7.65;;;;;;;8.52;83.43;101300.41;5006611;28;20029;-77
2021/10/19 02:39:54;;;;;;;12.25;8.77;;;;;;;8.49;83.03;101318.78;5005355;28;20080;-77
2021/10/19 02:42:19;;;;;;;12.68;8.32;;;;;;;8.41;83.46;101312.50;5001516;28;20031;-77
2021/10/19 02:44:45;;;;;;;10.85;8.25;;;;;;;8.38;83.16;101300.13;5006146;28;20117;-77
2021/10/19 02:47:10;;;;;;;11.35;8.10;;;;;;;8.32;83.40;101308.81;5010145;28;20061;-77
2021/10/19 02:49:36;;;;;;;10.50;8.55;;;;;;;8.28;83.49;101301.78;5015343;28;20109;-77
2021/10/19 02:52:01;;;;;;;11.88;7.68;;;;;;;8.28;83.19;101301.78;5005139;28;20408;-77
2021/10/19 02:54:26;;;;;;;11.32;8.07;;;;;;;8.21;83.20;101293.75;5004093;28;20433;-77
2021/10/19 02:56:51;;;;;;;12.60;9.90;;;;;;;8.10;83.04;101297.09;5024998;28;20529;-77
2021/10/19 02:59:17;;;;;;;12.07;9.20;;;;;;;7.98;83.88;101298.63;5004467;28;20551;-77
2021/10/19 03:01:42;;;;;;;11.88;7.85;;;;;;;7.92;83.69;101303.81;5006839;28;20046;-77
2021/10/19 03:04:07;;;;;;;9.90;7.53;;;;;;;7.79;83.54;101306.22;5020171;28;20092;-77
2021/10/19 03:06:33;;;;;;;12.02;8.80;;;;;;;7.71;84.05;101301.69;5006495;28;20405;-77
2021/10/19 03:08:58;;;;;;;11.90;8.73;;;;;;;7.61;84.14;101300.63;5006678;28;20423;-77
2021/10/19 03:11:24;;;;;;;15.68;11.27;;;;;;;7.58;84.03;101290.06;5003991;28;20167;-77
2021/10/19 03:13:50;;;;;;;13.73;10.13;;;;;;;7.51;84.28;101286.44;5006274;28;20449;-77
2021/10/19 03:16:16;;;;;;;10.85;8.68;;;;;;;7.43;85.15;101295.91;5003681;28;20049;-77
2021/10/19 03:18:41;;;;;;;12.07;7.78;;;;;;;7.36;84.39;101299.25;5006402;28;20048;-77
2021/10/19 03:21:07;;;;;;;16.58;11.95;;;;;;;7.30;84.68;101288.66;5004128;28;20042;-77
2021/10/19 03:23:32;;;;;;;15.23;10.93;;;;;;;7.29;85.10;101281.66;5008773;28;20029;-77
2021/10/19 03:25:57;;;;;;;13.45;10.40;;;;;;;7.28;84.93;101288.63;5004150;28;20053;-77
2021/10/19 03:28:22;;;;;;;13.90;8.57;;;;;;;7.26;84.96;101287.72;5008110;28;20030;-78
2021/10/19 03:30:48;;;;;;;11.93;9.20;;;;;;;7.18;85.08;101279.69;5020690;28;20052;-77
2021/10/19 03:33:13;;;;;;;11.75;8.93;;;;;;;7.18;84.48;101278.81;5006886;28;20069;-77
2021/10/19 03:35:38;;;;;;;10.48;8.10;;;;;;;7.16;84.78;101278.78;5005427;28;20288;-77
2021/10/19 03:38:04;;;;;;;13.52;8.68;;;;;;;7.12;84.60;101292.69;5004734;28;20088;-77
2021/10/19 03:40:30;;;;;;;10.73;7.70;;;;;;;6.92;85.16;101286.16;4987664;28;20041;-77
2021/10/19 03:42:55;;;;;;;10.93;7.57;;;;;;;6.88;84.69;101279.94;5003860;28;20093;-77
2021/10/19 03:45:21;;;;;;;10.07;7.53;;;;;;;6.90;84.95;101272.13;5006924;28;20038;-77
2021/10/19 03:47:47;;;;;;;10.25;7.97;;;;;;;6.87;84.96;101280.81;5006849;28;20052;-77
2021/10/19 03:50:13;;;;;;;10.35;7.93;;;;;;;6.88;84.82;101281.69;5021177;28;20042;-77
2021/10/19 03:52:39;;;;;;;12.13;9.82;;;;;;;6.81;84.75;101280.66;5004489;28;20067;-77
2021/10/19 03:55:07;;;;;;;11.95;8.57;;;;;;;6.76;85.48;101283.22;5020601;28;20046;-77
2021/10/19 03:57:33;;;;;;;11.52;8.68;;;;;;;6.71;85.19;101292.72;5008139;28;20033;-77
2021/10/19 03:59:58;;;;;;;12.85;9.32;;;;;;;6.59;85.49;101287.19;5007582;28;20510;-78
2021/10/19 04:02:23;;;;;;;12.63;8.23;;;;;;;6.53;85.81;101292.31;5009865;28;20038;-78
2021/10/19 04:04:49;;;;;;;12.98;10.15;;;;;;;6.53;86.11;101285.31;5008933;28;20042;-78
2021/10/19 04:07:14;;;;;;;12.18;7.97;;;;;;;6.54;85.87;101283.59;5024573;28;20039;-77
2021/10/19 04:09:40;;;;;;;10.27;7.22;;;;;;;6.52;85.45;101285.28;5007087;28;20057;-77
2021/10/19 04:12:07;;;;;;;10.38;7.97;;;;;;;6.49;85.17;101283.47;5007995;28;20047;-77
2021/10/19 04:14:34;;;;;;;13.80;10.30;;;;;;;6.47;85.38;101285.19;5007114;28;20030;-78
2021/10/19 04:16:59;;;;;;;11.90;7.95;;;;;;;6.48;85.79;101291.31;5005508;28;20133;-78
2021/10/19 04:19:24;;;;;;;10.13;7.68;;;;;;;6.48;85.28;101297.44;5023906;28;20062;-76
2021/10/19 04:21:50;;;;;;;10.23;7.75;;;;;;;6.46;85.39;101291.28;5004789;28;20030;-74
2021/10/19 04:24:16;;;;;;;13.18;9.20;;;;;;;6.52;85.51;101274.78;5003328;28;20116;-76
2021/10/19 04:26:41;;;;;;;14.27;10.50;;;;;;;6.59;85.21;101277.59;5001311;28;20038;-76
2021/10/19 04:29:07;;;;;;;18.10;11.40;;;;;;;6.67;85.86;101271.63;5008321;28;20041;-77
2021/10/19 04:31:32;;;;;;;15.02;11.27;;;;;;;6.72;85.85;101270.00;5009945;28;20600;-77
2021/10/19 04:34:01;;;;;;;14.68;9.50;;;;;;;6.80;86.43;101276.28;5026235;28;20034;-77
2021/10/19 04:36:26;;;;;;;15.63;11.30;;;;;;;6.92;86.16;101268.69;5007442;28;20131;-77
2021/10/19 04:38:52;;;;;;;14.80;10.63;;;;;;;6.98;85.53;101260.91;5005229;28;20439;-77
2021/10/19 04:41:17;;;;;;;15.00;10.32;;;;;;;7.01;85.72;101267.97;5012356;28;20038;-77
2021/10/19 04:43:43;;;;;;;12.82;8.50;;;;;;;7.13;85.67;101259.47;5008734;28;20121;-76
2021/10/19 04:46:08;;;;;;;16.05;10.40;;;;;;;7.25;86.05;101265.81;5007627;28;20428;-77
2021/10/19 04:48:33;;;;;;;16.23;10.98;;;;;;;7.37;85.69;101254.66;5006595;28;20116;-76
2021/10/19 04:50:59;;;;;;;14.02;10.45;;;;;;;7.50;84.86;101271.53;5010163;28;20072;-76
2021/10/19 04:53:24;;;;;;;13.90;9.90;;;;;;;7.51;84.68;101267.16;5000567;28;20451;-77
2021/10/19 04:55:53;;;;;;;13.05;9.90;;;;;;;7.54;84.50;101261.97;5006852;28;20155;-76
2021/10/19 04:58:18;;;;;;;14.45;9.93;;;;;;;7.58;84.44;101259.41;5002955;28;20035;-76
2021/10/19 05:00:46;;;;;;;13.02;9.00;;;;;;;7.65;84.10;101265.66;5004342;28;20499;-76
2021/10/19 05:03:12;;;;;;;15.05;10.40;;;;;;;7.66;85.02;101251.69;5000481;28;20209;-76
2021/10/19 05:05:37;;;;;;;14.10;9.40;;;;;;;7.72;84.86;101250.88;5007805;28;20120;-76
2021/10/19 05:08:03;;;;;;;12.85;9.38;;;;;;;7.74;83.72;101247.44;5008954;28;20040;-77
2021/10/19 05:10:28;;;;;;;11.82;8.32;;;;;;;7.76;83.42;101252.72;5008695;28;20022;-76
2021/10/19 05:12:53;;;;;;;10.93;8.13;;;;;;;7.78;83.10;101270.28;5021446;28;20052;-76
2021/10/19 05:15:21;;;;;;;12.23;8.70;;;;;;;7.78;83.39;101272.91;5009071;28;20038;-76
2021/10/19 05:17:46;;;;;;;11.38;7.35;;;;;;;7.79;83.66;101279.06;5008723;28;20038;-77
2021/10/19 05:20:11;;;;;;;11.30;8.20;;;;;;;7.80;83.50;101286.06;5009422;28;20111;-76
2021/10/19 05:22:37;;;;;;;13.85;9.55;;;;;;;7.78;83.80;101286.06;5010078;28;20041;-77
2021/10/19 05:25:04;;;;;;;12.65;9.18;;;;;;;7.86;83.49;101281.81;5008410;28;20030;-76
2021/10/19 05:27:29;;;;;;;13.88;9.13;;;;;;;7.95;83.53;101278.44;5007642;28;20029;-77
2021/10/19 05:29:54;;;;;;;13.00;9.25;;;;;;;7.98;83.48;101264.47;5008299;28;20045;-77
2021/10/19 05:32:20;;;;;;;13.50;9.73;;;;;;;8.01;82.88;101264.50;5000977;28;20030;-76
2021/10/19 05:34:45;;;;;;;12.52;10.52;;;;;;;8.07;83.29;101272.50;5018917;28;20420;-77
2021/10/19 05:37:10;;;;;;;13.98;10.75;;;;;;;8.11;83.21;101272.56;5009721;28;20115;-77
2021/10/19 05:39:36;;;;;;;12.10;9.88;;;;;;;8.18;83.03;101268.31;5020834;28;20039;-76
2021/10/19 05:42:02;;;;;;;12.18;9.00;;;;;;;8.26;83.28;101266.66;5000194;28;20061;-77
2021/10/19 05:44:28;;;;;;;17.20;11.77;;;;;;;8.31;83.13;101257.09;5001690;28;20082;-77
2021/10/19 05:46:53;;;;;;;14.35;10.77;;;;;;;8.38;83.35;101244.91;5002006;28;20068;-77
2021/10/19 05:49:19;;;;;;;16.55;11.23;;;;;;;8.48;83.04;101253.84;5002248;28;20096;-77
2021/10/19 05:51:44;;;;;;;17.88;12.38;;;;;;;8.50;83.31;101254.75;5002765;28;20495;-77
2021/10/19 05:54:13;;;;;;;14.40;10.70;;;;;;;8.53;83.18;101265.31;5001585;28;20049;-77
2021/10/19 05:56:38;;;;;;;13.50;10.50;;;;;;;8.57;82.37;101261.88;5002995;28;20034;-77
2021/10/19 05:59:04;;;;;;;14.70;11.75;;;;;;;8.48;82.80;101272.28;4997184;28;20500;-77
2021/10/19 06:01:29;;;;;;;15.13;10.93;;;;;;;8.50;82.75;101275.81;5001660;28;20049;-78
2021/10/19 06:03:54;;;;;;;11.52;8.73;;;;;;;8.49;82.45;101272.31;5003891;28;20033;-77
2021/10/19 06:06:20;;;;;;;10.95;9.00;;;;;;;8.47;82.54;101275.78;5015917;28;20409;-77
2021/10/19 06:08:45;;;;;;;12.65;9.88;;;;;;;8.51;83.00;101288.09;5004394;28;20443;-77
2021/10/19 06:11:10;;;;;;;14.55;10.95;;;;;;;8.55;83.01;101284.66;5001401;28;20057;-77
2021/10/19 06:13:36;;;;;;;13.88;10.48;;;;;;;8.54;82.44;101289.03;5003167;28;20033;-77
2021/10/19 06:16:01;;;;;;;13.93;10.63;;;;;;;8.55;82.41;101298.69;5001867;28;20065;-77
2021/10/19 06:18:26;;;;;;;13.10;9.43;;;;;;;8.62;82.60;101291.78;5002864;28;20042;-78
2021/10/19 06:20:52;;;;;;;16.65;9.77;;;;;;;8.71;82.58;101276.09;5002474;28;20050;-77
2021/10/19 06:23:19;;;;;;;14.18;10.68;;;;;;;8.85;82.36;101278.03;5001941;28;20031;-77
2021/10/19 06:25:45;;;;;;;12.57;9.52;;;;;;;8.97;81.83;101263.28;5003103;28;20041;-77
2021/10/19 06:28:11;;;;;;;15.13;10.60;;;;;;;9.08;82.05;101273.06;5008908;28;20128;-78
2021/10/19 06:30:36;;;;;;;13.13;10.05;;;;;;;9.17;81.37;101275.81;5023237;28;20069;-77
2021/10/19 06:33:03;;;;;;;15.35;9.13;;;;;;;9.22;81.31;101276.72;5012380;28;20077;-77
2021/10/19 06:35:28;;;;;;;12.70;9.43;;;;;;;9.26;81.43;101269.75;5016609;28;20080;-77
2021/10/19 06:37:54;;;;;;;16.00;9.55;;;;;;;9.32;81.54;101264.53;5009259;28;20444;-77
2021/10/19 06:40:19;;;;;;;13.70;10.35;;;;;;;9.37;81.57;101252.28;5011685;28;20029;-77
2021/10/19 06:42:45;;;;;;;19.77;14.15;;;;;;;9.43;81.94;101248.00;5010896;28;20038;-78
2021/10/19 06:45:11;;;;;;;19.92;12.23;;;;;;;9.49;81.57;101247.16;5009732;28;20038;-77
2021/10/19 06:47:38;;;;;;;13.20;9.73;;;;;;;9.51;81.40;101250.69;5024395;28;20035;-77
2021/10/19 06:50:05;;;;;;;13.35;9.95;;;;;;;9.53;81.42;101254.22;5025085;28;20030;-77
2021/10/19 06:52:31;;;;;;;15.68;10.63;;;;;;;9.54;81.27;101260.38;5011421;28;20463;-77
2021/10/19 06:54:57;;;;;;;12.68;8.82;;;;;;;9.55;81.18;101270.94;5006515;28;20025;-78
2021/10/19 06:57:23;;;;;;;14.90;10.50;;;;;;;9.52;81.04;101267.38;5004350;28;20109;-78
2021/10/19 06:59:48;;;;;;;14.52;10.40;;;;;;;9.54;81.12;101261.28;5006520;28;20068;-77
2021/10/19 07:02:13;;;;;;;13.02;9.57;;;;;;;9.64;81.13;101256.94;5020528;28;20076;-77
2021/10/19 07:04:39;;;;;;;18.38;11.52;;;;;;;9.68;79.97;101257.88;5006794;28;20046;-77
2021/10/19 07:07:04;;;;;;;19.00;15.95;;;;;;;9.77;80.23;101264.13;5019663;28;20069;-76
2021/10/19 07:09:29;;;;;;;15.27;10.52;;;;;;;9.88;79.90;101261.56;5007959;28;20457;-78
2021/10/19 07:11:55;;;;;;;15.15;11.68;;;;;;;9.98;79.56;101260.78;5003984;28;20038;-77
2021/10/19 07:14:21;;;;;;;16.30;10.80;;;;;;;10.04;79.63;101257.31;5006777;28;20046;-77
2021/10/19 07:16:47;;;;;;;14.30;11.05;;;;;;;10.11;80.34;101251.19;5019261;28;20038;-77
2021/10/19 07:19:12;;;;;;;12.65;9.93;;;;;;;10.26;79.54;101263.59;5006093;28;20057;-78
2021/10/19 07:21:37;;;;;;;13.38;10.48;;;;;;;10.41;80.02;101261.09;5020165;28;20077;-78
2021/10/19 07:24:03;;;;;;;12.95;9.05;;;;;;;10.58;77.91;101262.94;5005271;28;20042;-78
2021/10/19 07:26:28;;;;;;;11.50;9.65;;;;;;;10.71;77.68;101255.09;5008166;28;20022;-77
2021/10/19 07:28:54;;;;;;;14.13;9.20;;;;;;;10.88;76.84;101260.47;5010635;28;20050;-77
2021/10/19 07:31:19;;;;;;;11.70;9.48;;;;;;;10.99;76.39;101255.22;5021279;28;20121;-78
2021/10/19 07:33:45;;;;;;;10.80;8.05;;;;;;;11.17;75.20;101243.84;5018817;28;20077;-77
2021/10/19 07:36:11;;;;;;;12.20;7.55;;;;;;;11.34;74.72;101246.50;5006140;28;20068;-77
2021/10/19 07:38:37;;;;;;;13.80;7.30;;;;;;;11.52;74.27;101237.75;5002067;28;20067;-77
2021/10/19 07:41:02;;;;;;;11.23;7.78;;;;;;;11.67;73.12;101243.03;5007048;28;20081;-77
2021/10/19 07:43:27;;;;;;;10.52;7.97;;;;;;;11.86;72.49;101241.31;5003581;28;20177;-77
2021/10/19 07:45:53;;;;;;;9.43;7.25;;;;;;;12.03;72.29;101236.03;5006593;28;20053;-78
2021/10/19 07:48:18;;;;;;;11.50;7.45;;;;;;;12.20;71.25;101236.88;5004728;28;20033;-77
2021/10/19 07:50:47;;;;;;;11.75;7.50;;;;;;;12.35;70.72;101229.81;5006220;28;20131;-77
2021/10/19 07:53:14;;;;;;;10.60;6.35;;;;;;;12.50;69.79;101227.13;5006127;28;20045;-78
2021/10/19 07:55:40;;;;;;;8.60;6.40;;;;;;;12.64;69.00;101225.28;5007439;28;20121;-77
2021/10/19 07:58:05;;;;;;;9.18;6.60;;;;;;;12.74;67.32;101220.84;5006729;28;20554;-78
2021/10/19 08:00:31;;;;;;;11.32;7.47;;;;;;;12.88;68.02;101219.00;5007754;28;20121;-78
2021/10/19 08:02:57;;;;;;;9.25;6.53;;;;;;;13.02;66.85;101226.91;5008705;28;20038;-78
2021/10/19 08:05:22;;;;;;;10.40;6.10;;;;;;;12.85;64.00;101224.31;5006966;28;20481;-78
2021/10/19 08:07:51;;;;;;;8.93;6.45;;;;;;;13.08;65.63;101236.59;5008136;28;20041;-78
2021/10/19 08:10:19;;;;;;;12.27;6.68;;;;;;;13.10;65.33;101230.41;5009945;28;20030;-78
2021/10/19 08:12:44;;;;;;;8.90;6.90;;;;;;;13.18;64.48;101237.41;5013971;28;20139;-78
2021/10/19 08:15:16;;;;;;;9.45;7.10;;;;;;;13.16;64.60;101237.44;5026163;28;20448;-78
2021/10/19 08:17:41;;;;;;;9.45;5.85;;;;;;;13.10;63.71;101237.47;5009585;28;20080;-78
2021/10/19 08:20:08;;;;;;;11.52;6.80;;;;;;;13.05;64.50;101242.78;5008681;28;20594;-78
2021/10/19 08:22:35;;;;;;;9.00;6.25;;;;;;;12.94;63.68;101244.59;5005731;28;20038;-78
2021/10/19 08:25:03;;;;;;;10.07;6.53;;;;;;;12.74;63.59;101246.47;5008632;28;20100;-78
2021/10/19 08:27:29;;;;;;;9.55;6.00;;;;;;;12.82;64.84;101240.25;5014455;28;20030;-78
2021/10/19 08:29:54;;;;;;;9.85;6.50;;;;;;;12.89;65.46;101238.44;5009242;28;20203;-79
2021/10/19 08:32:20;;;;;;;9.05;6.00;;;;;;;13.00;65.19;101233.97;5016325;28;20057;-78
2021/10/19 08:34:46;;;;;;;11.60;7.50;;;;;;;13.08;64.78;101234.81;5011139;28;20094;-78
2021/10/19 08:37:11;;;;;;;11.40;6.90;;;;;;;13.15;64.84;101233.91;5012567;28;20060;-79
2021/10/19 08:39:36;;;;;;;9.70;6.60;;;;;;;13.33;65.11;101230.28;5015149;28;20048;-79
2021/10/19 08:42:02;;;;;;;12.48;6.95;;;;;;;13.42;63.77;101226.72;5015240;28;20089;-79
2021/10/19 08:44:28;;;;;;;11.10;7.18;;;;;;;13.53;63.59;101224.84;5018645;28;20041;-79
2021/10/19 08:46:54;;;;;;;11.90;7.47;;;;;;;13.69;64.14;101230.03;5020327;28;20022;-79
2021/10/19 08:49:19;;;;;;;11.05;6.85;;;;;;;13.78;63.86;101211.38;5017271;28;20429;-79
2021/10/19 08:51:44;;;;;;;10.38;7.07;;;;;;;13.85;63.67;101198.97;5031819;28;20046;-79
2021/10/19 08:54:11;;;;;;;10.55;7.10;;;;;;;13.86;61.93;101200.69;5031214;28;20057;-79
2021/10/19 08:56:40;;;;;;;10.95;7.32;;;;;;;13.90;62.60;101195.38;5022924;28;20041;-78
2021/10/19 08:59:06;;;;;;;9.52;6.70;;;;;;;13.90;61.89;101190.06;5015124;28;20094;-79
2021/10/19 09:01:36;;;;;;;12.30;6.95;;;;;;;13.97;61.96;101193.53;5012377;28;20030;-79
2021/10/19 09:04:12;;;;;;;10.05;7.15;;;;;;;14.07;60.66;101200.53;5015337;28;20029;-79
2021/10/19 09:06:39;;;;;;;8.35;6.43;;;;;;;14.15;60.83;101192.50;5029566;28;20036;-78
2021/10/19 09:09:10;;;;;;;8.55;6.65;;;;;;;14.33;60.12;101191.38;5013746;28;20033;-79
2021/10/19 09:11:43;;;;;;;9.07;6.10;;;;;;;14.42;58.98;101189.50;5014399;28;20038;-79
2021/10/19 09:14:12;;;;;;;10.60;8.07;;;;;;;14.42;58.95;101189.50;5011933;28;20464;-78
2021/10/19 09:16:42;;;;;;;11.40;8.68;;;;;;;14.67;59.34;101191.91;5015012;28;20042;-79
2021/10/19 09:19:13;;;;;;;9.88;6.88;;;;;;;14.86;58.24;101189.91;5012908;28;20518;-79
2021/10/19 09:21:53;;;;;;;12.00;9.25;;;;;;;15.14;58.08;101198.34;5015806;28;20057;-79
2021/10/19 09:24:25;;;;;;;13.20;7.28;;;;;;;15.30;56.86;101189.28;5014217;28;20065;-79
2021/10/19 09:26:53;;;;;;;8.88;6.60;;;;;;;15.59;56.70;101177.28;5014676;28;20052;-78
2021/10/19 09:29:19;;;;;;;8.80;7.00;;;;;;;15.80;56.80;101168.09;5028694;28;20375;-79
2021/10/19 09:31:45;;;;;;;7.80;6.43;;;;;;;15.81;55.76;101166.31;5014887;28;20045;-78
2021/10/19 09:34:12;;;;;;;9.35;6.15;;;;;;;15.96;56.27;101171.38;5012899;28;20034;-79
2021/10/19 09:36:37;;;;;;;8.10;6.20;;;;;;;16.12;56.26;101175.50;5029508;28;20058;-79
2021/10/19 09:39:02;;;;;;;9.50;6.88;;;;;;;16.12;55.28;101178.16;5012279;28;20073;-79
2021/10/19 09:41:28;;;;;;;8.30;6.50;;;;;;;16.06;55.96;101172.97;5014762;28;20088;-79
2021/10/19 09:43:53;;;;;;;8.52;6.28;;;;;;;16.13;56.49;101179.91;5011836;28;20042;-78
2021/10/19 09:46:23;;;;;;;8.68;6.57;;;;;;;16.16;55.65;101179.84;5015029;28;20104;-79
2021/10/19 09:48:50;;;;;;;9.05;6.50;;;;;;;16.19;56.18;101181.56;5026469;28;20034;-79
2021/10/19 09:51:15;;;;;;;9.32;6.43;;;;;;;16.16;55.93;101171.84;5015319;28;20046;-79
2021/10/19 09:53:42;;;;;;;9.77;6.60;;;;;;;16.21;55.80;101163.78;5012724;28;20060;-78
2021/10/19 09:56:09;;;;;;;8.00;5.80;;;;;;;16.33;55.77;101171.53;5030610;28;20118;-79
2021/10/19 09:58:35;;;;;;;11.05;6.10;;;;;;;16.45;55.84;101167.72;5028142;28;20070;-79
2021/10/19 10:01:02;;;;;;;9.85;5.72;;;;;;;16.43;55.92;101165.13;5013457;28;20034;-80
2021/10/19 10:03:29;;;;;;;11.13;5.82;;;;;;;16.60;55.05;101174.53;5002623;28;20060;-81
2021/10/19 10:05:54;;;;;;;8.32;5.50;;;;;;;16.72;54.50;101171.63;5017750;28;20049;-80
2021/10/19 10:08:23;;;;;;;7.57;5.40;;;;;;;16.86;54.55;101163.34;5018953;28;20101;-80
2021/10/19 10:10:53;;;;;;;7.68;5.45;;;;;;;16.96;53.78;101164.03;5018717;28;20120;-80
2021/10/19 10:13:18;;;;;;;7.25;5.20;;;;;;;16.99;52.39;101163.97;5035157;28;20061;-80
2021/10/19 10:15:43;;;;;;;8.45;5.00;;;;;;;17.02;52.85;101151.44;5026229;28;20040;-80
2021/10/19 10:18:11;;;;;;;11.90;5.45;;;;;;;17.15;53.46;101153.81;5018357;28;20409;-80
2021/10/19 10:20:44;;;;;;;9.38;6.00;;;;;;;17.36;52.16;101150.63;5039659;28;20474;-79
2021/10/19 10:23:27;;;;;;;7.10;5.03;;;;;;;17.56;52.16;101149.28;5019281;28;20033;-80
2021/10/19 10:25:54;;;;;;;11.10;5.68;;;;;;;17.70;50.61;101147.13;5030742;28;20512;-80
2021/10/19 10:28:29;;;;;;;8.95;5.50;;;;;;;17.70;49.66;101139.13;5019943;28;20038;-80
2021/10/19 10:30:57;;;;;;;7.95;5.10;;;;;;;17.88;50.62;101137.78;5021038;28;20045;-79
2021/10/19 10:33:32;;;;;;;7.97;5.07;;;;;;;18.07;50.63;101135.50;5040089;28;20424;-79
2021/10/19 10:36:06;;;;;;;10.15;5.35;;;;;;;18.29;50.07;101136.66;5024717;28;20068;-79
2021/10/19 10:38:31;;;;;;;7.75;4.60;;;;;;;18.42;50.15;101138.94;5007273;28;20057;-81
2021/10/19 10:41:12;;;;;;;6.05;4.25;;;;;;;18.56;49.69;101134.97;5034101;28;20042;-80
2021/10/19 10:43:38;;;;;;;6.50;3.65;;;;;;;18.49;48.34;101122.69;5021038;28;20439;-80
2021/10/19 10:46:12;;;;;;;6.88;3.88;;;;;;;18.53;48.14;101123.50;5021649;28;20091;-80
2021/10/19 10:48:38;;;;;;;5.75;3.03;;;;;;;18.56;48.19;101107.38;5033121;28;20035;-79
2021/10/19 10:51:05;;;;;;;5.65;3.53;;;;;;;18.65;48.56;101106.19;5021159;28;20077;-80
2021/10/19 10:53:36;;;;;;;6.50;4.28;;;;;;;18.70;47.62;101101.59;5022067;28;20072;-80
2021/10/19 10:56:02;;;;;;;5.18;3.47;;;;;;;18.71;46.77;101093.53;5004929;28;20045;-80
2021/10/19 10:58:34;;;;;;;5.72;3.10;;;;;;;18.82;46.69;101099.44;5022071;28;20038;-80
2021/10/19 11:01:21;;;;;;;5.40;3.13;;;;;;;18.93;47.78;101098.25;5018370;28;20037;-80
2021/10/19 11:03:53;;;;;;;6.07;3.97;;;;;;;18.87;47.25;101096.63;5000891;28;20082;-80
2021/10/19 11:06:23;;;;;;;5.10;3.55;;;;;;;19.00;46.29;101092.66;5016665;28;20038;-80
2021/10/19 11:08:57;;;;;;;5.22;3.58;;;;;;;18.97;45.90;101094.56;5018526;28;20139;-80
2021/10/19 11:11:24;;;;;;;5.80;3.67;;;;;;;19.02;46.15;101092.56;5032779;28;20482;-80
2021/10/19 11:13:54;;;;;;;5.70;3.53;;;;;;;19.07;46.81;101103.13;5035149;28;20105;-80
2021/10/19 11:16:28;;;;;;;5.47;3.60;;;;;;;19.12;46.60;101086.00;5019714;28;20069;-80
2021/10/19 11:18:54;;;;;;;4.75;3.67;;;;;;;19.02;44.87;101084.56;5016302;28;20038;-80